createdAt,value
2023-02-28T00:00:39.012Z,30.00
2023-02-28T00:03:06.571Z,30.28
2023-02-28T00:05:33.776Z,29.33
2023-02-28T00:08:00.933Z,29.53
2023-02-28T00:10:29.469Z,29.01
2023-02-28T00:12:57.925Z,29.46
2023-02-28T00:15:25.123Z,30.58
2023-02-28T00:17:52.581Z,31.02
2023-02-28T00:20:19.866Z,31.30
2023-02-28T00:22:48.147Z,32.39
2023-02-28T00:25:16.514Z,32.79
2023-02-28T00:27:44.011Z,32.44
2023-02-28T00:30:12.390Z,32.96
2023-02-28T00:32:39.853Z,32.75
2023-02-28T00:35:07.446Z,33.43
2023-02-28T00:37:34.598Z,34.22
2023-02-28T00:40:02.363Z,33.36
2023-02-28T00:42:29.652Z,33.98
2023-02-28T00:44:56.834Z,33.17
2023-02-28T00:47:24.280Z,33.72
2023-02-28T00:49:51.601Z,33.15
2023-02-28T00:52:18.796Z,32.77
2023-02-28T00:54:46.274Z,32.21
2023-02-28T00:57:15.482Z,32.68
2023-02-28T00:59:42.665Z,32.70
2023-02-28T01:02:10.102Z,32.12
2023-02-28T01:04:37.595Z,32.00
2023-02-28T01:07:04.803Z,31.70
2023-02-28T01:09:32.297Z,32.80
2023-02-28T01:11:59.445Z,31.20
2023-02-28T01:14:26.607Z,30.92
2023-02-28T01:16:54.075Z,31.42
2023-02-28T01:19:24.049Z,30.58
2023-02-28T01:21:51.194Z,31.39
2023-02-28T01:24:18.705Z,31.61
2023-02-28T01:26:46.010Z,30.98
2023-02-28T01:29:13.170Z,30.33
2023-02-28T01:31:40.657Z,30.25
2023-02-28T01:34:09.108Z,32.13
2023-02-28T01:36:37.310Z,33.06
2023-02-28T01:39:04.801Z,31.36
2023-02-28T01:41:33.767Z,32.00
2023-02-28T01:44:06.647Z,30.47
2023-02-28T01:46:35.248Z,32.18
2023-02-28T01:49:06.897Z,30.99
2023-02-28T01:51:36.419Z,30.47
2023-02-28T01:54:14.560Z,30.07
2023-02-28T01:56:45.999Z,30.21
2023-02-28T01:59:19.781Z,30.59
2023-02-28T02:01:47.292Z,30.22
2023-02-28T02:04:14.807Z,29.68
2023-02-28T02:06:43.656Z,29.93
2023-02-28T02:09:12.442Z,31.58
2023-02-28T02:11:40.915Z,31.29
2023-02-28T02:14:26.905Z,32.48
2023-02-28T02:17:17.361Z,33.13
2023-02-28T02:19:56.185Z,33.09
2023-02-28T02:22:26.616Z,31.64
2023-02-28T02:24:53.747Z,31.14
2023-02-28T02:27:29.723Z,31.88
2023-02-28T02:30:15.609Z,33.19
2023-02-28T02:33:01.457Z,33.53
2023-02-28T02:35:30.090Z,33.67
2023-02-28T02:38:08.285Z,34.21
2023-02-28T02:40:39.394Z,32.61
2023-02-28T02:43:12.618Z,33.32
2023-02-28T02:45:43.146Z,33.17
2023-02-28T02:48:29.227Z,33.47
2023-02-28T02:50:58.839Z,33.35
2023-02-28T02:53:30.826Z,32.58
2023-02-28T02:56:00.286Z,33.57
2023-02-28T02:58:29.167Z,32.92
2023-02-28T03:00:59.125Z,32.41
2023-02-28T03:03:32.624Z,33.16
2023-02-28T03:06:01.229Z,32.17
2023-02-28T03:08:29.325Z,31.39
2023-02-28T03:10:57.293Z,31.05
2023-02-28T03:13:33.622Z,30.48
2023-02-28T03:16:08.536Z,32.93
2023-02-28T03:18:48.181Z,31.74
2023-02-28T03:21:19.969Z,30.09
2023-02-28T03:23:59.454Z,30.49
2023-02-28T03:26:27.520Z,30.47
2023-02-28T03:28:54.739Z,30.79
2023-02-28T03:31:21.985Z,30.73
2023-02-28T03:33:55.933Z,29.76
2023-02-28T03:36:24.528Z,30.13
2023-02-28T03:39:03.723Z,30.44
2023-02-28T03:41:32.584Z,30.21
2023-02-28T03:44:05.074Z,29.78
2023-02-28T03:46:34.514Z,29.16
2023-02-28T03:49:03.582Z,29.01
2023-02-28T03:51:30.891Z,28.98
2023-02-28T03:53:59.357Z,28.87
2023-02-28T03:56:38.868Z,28.86
2023-02-28T03:59:16.412Z,28.79
2023-02-28T04:01:44.629Z,28.43
2023-02-28T04:04:12.575Z,29.61
2023-02-28T04:06:39.874Z,29.53
2023-02-28T04:09:07.591Z,29.59
2023-02-28T04:11:36.556Z,30.31
2023-02-28T04:14:04.284Z,29.80
2023-02-28T04:16:35.372Z,30.69
2023-02-28T04:19:06.748Z,30.43
2023-02-28T04:21:40.060Z,30.27
2023-02-28T04:24:08.214Z,30.13
2023-02-28T04:26:36.280Z,30.32
2023-02-28T04:29:04.441Z,31.41
2023-02-28T04:31:32.569Z,31.77
2023-02-28T04:34:00.435Z,32.59
2023-02-28T04:36:27.681Z,32.72
2023-02-28T04:38:55.342Z,31.90
2023-02-28T04:41:23.750Z,32.92
2023-02-28T04:43:54.001Z,32.06
2023-02-28T04:46:21.890Z,32.58
2023-02-28T04:48:49.235Z,32.37
2023-02-28T04:51:17.104Z,31.63
2023-02-28T04:53:44.599Z,32.25
2023-02-28T04:56:12.670Z,33.64
2023-02-28T04:58:40.622Z,33.36
2023-02-28T05:01:15.265Z,33.60
2023-02-28T05:03:42.703Z,33.13
2023-02-28T05:06:10.660Z,32.34
2023-02-28T05:08:37.890Z,31.59
2023-02-28T05:11:05.382Z,32.57
2023-02-28T05:13:32.810Z,32.79
2023-02-28T05:16:00.043Z,31.37
2023-02-28T05:18:27.311Z,32.17
2023-02-28T05:20:54.935Z,31.05
2023-02-28T05:23:22.097Z,30.77
2023-02-28T05:25:49.277Z,31.08
2023-02-28T05:28:16.701Z,30.51
2023-02-28T05:30:43.852Z,30.16
2023-02-28T05:33:11.888Z,29.99
2023-02-28T05:35:39.928Z,30.06
2023-02-28T05:38:07.197Z,30.46
2023-02-28T05:40:34.334Z,29.99
2023-02-28T05:43:01.926Z,29.46
2023-02-28T05:45:29.386Z,30.12
2023-02-28T05:47:56.682Z,30.04
2023-02-28T05:50:24.127Z,29.67
2023-02-28T05:52:51.655Z,29.41
2023-02-28T05:55:19.392Z,29.46
2023-02-28T05:57:46.926Z,29.00
2023-02-28T06:00:16.048Z,28.92
2023-02-28T06:02:43.502Z,28.46
2023-02-28T06:05:19.754Z,28.23
2023-02-28T06:07:47.233Z,28.35
2023-02-28T06:10:14.784Z,28.02
2023-02-28T06:12:42.652Z,28.76
2023-02-28T06:15:14.184Z,28.98
2023-02-28T06:17:42.202Z,29.00
2023-02-28T06:20:10.282Z,29.10
2023-02-28T06:22:37.595Z,28.64
2023-02-28T06:25:05.428Z,28.95
2023-02-28T06:27:33.586Z,29.23
2023-02-28T06:30:00.793Z,29.33
2023-02-28T06:32:27.948Z,29.19
2023-02-28T06:34:55.498Z,28.93
2023-02-28T06:37:22.679Z,29.86
2023-02-28T06:39:49.834Z,30.53
2023-02-28T06:42:17.268Z,30.07
2023-02-28T06:44:44.463Z,30.26
2023-02-28T06:47:11.649Z,29.05
2023-02-28T06:49:40.105Z,28.88
2023-02-28T06:52:07.321Z,29.41
2023-02-28T06:54:34.529Z,29.45
2023-02-28T06:57:02.006Z,29.93
2023-02-28T06:59:29.214Z,30.26
2023-02-28T07:01:56.422Z,30.21
2023-02-28T07:04:23.983Z,31.02
2023-02-28T07:06:51.153Z,31.21
2023-02-28T07:09:20.149Z,30.15
2023-02-28T07:11:47.583Z,30.18
2023-02-28T07:14:14.731Z,30.32
2023-02-28T07:16:41.914Z,29.37
2023-02-28T07:19:09.363Z,31.07
2023-02-28T07:21:36.527Z,30.18
2023-02-28T07:24:03.740Z,28.94
2023-02-28T07:26:31.160Z,28.95
2023-02-28T07:28:58.396Z,29.26
2023-02-28T07:31:25.614Z,29.47
2023-02-28T07:33:54.492Z,30.40
2023-02-28T07:36:21.734Z,29.46
2023-02-28T07:38:51.093Z,29.17
2023-02-28T07:41:19.704Z,28.71
2023-02-28T07:43:46.979Z,29.26
2023-02-28T07:46:18.091Z,29.35
2023-02-28T07:48:45.706Z,28.80
2023-02-28T07:51:13.215Z,28.39
2023-02-28T07:53:40.510Z,29.57
2023-02-28T07:56:08.078Z,30.02
2023-02-28T07:58:35.224Z,28.71
2023-02-28T08:01:10.126Z,28.26
2023-02-28T08:03:38.080Z,28.03
2023-02-28T08:06:05.990Z,28.71
2023-02-28T08:08:33.247Z,28.89
2023-02-28T08:11:01.916Z,28.88
2023-02-28T08:13:29.838Z,28.86
2023-02-28T08:15:56.986Z,29.18
2023-02-28T08:18:24.576Z,28.91
2023-02-28T08:20:53.024Z,29.36
2023-02-28T08:23:20.208Z,29.70
2023-02-28T08:25:53.883Z,29.19
2023-02-28T08:28:21.084Z,29.19
2023-02-28T08:30:48.487Z,30.88
2023-02-28T08:33:15.749Z,30.35
2023-02-28T08:35:42.942Z,31.04
2023-02-28T08:38:10.380Z,29.95
2023-02-28T08:40:37.584Z,30.24
2023-02-28T08:43:04.731Z,29.31
2023-02-28T08:45:32.322Z,29.29
2023-02-28T08:47:59.510Z,30.00
2023-02-28T08:50:26.719Z,31.73
2023-02-28T08:52:54.136Z,29.97
2023-02-28T08:55:21.300Z,29.66
2023-02-28T08:57:48.441Z,32.07
2023-02-28T09:00:16.038Z,32.46
2023-02-28T09:02:44.704Z,31.73
2023-02-28T09:05:13.107Z,31.76
2023-02-28T09:07:40.564Z,33.49
2023-02-28T09:10:07.901Z,33.14
2023-02-28T09:12:35.957Z,32.55
2023-02-28T09:15:03.836Z,32.33
2023-02-28T09:17:31.309Z,32.38
2023-02-28T09:19:58.562Z,33.62
2023-02-28T09:22:26.201Z,32.39
2023-02-28T09:24:53.364Z,32.00
2023-02-28T09:27:20.501Z,31.06
2023-02-28T09:29:47.980Z,30.22
2023-02-28T09:32:15.198Z,30.18
2023-02-28T09:34:42.516Z,32.29
2023-02-28T09:37:09.961Z,31.43
2023-02-28T09:39:37.394Z,30.72
2023-02-28T09:42:04.690Z,29.64
2023-02-28T09:44:33.255Z,32.12
2023-02-28T09:47:26.865Z,32.88
2023-02-28T09:49:54.365Z,33.31
2023-02-28T09:52:23.164Z,33.00
2023-02-28T09:54:50.292Z,32.86
2023-02-28T09:57:32.017Z,33.23
2023-02-28T09:59:59.111Z,32.30
2023-02-28T10:02:32.566Z,31.79
2023-02-28T10:05:06.332Z,31.61
2023-02-28T10:07:49.016Z,32.54
2023-02-28T10:10:27.782Z,32.40
2023-02-28T10:12:55.505Z,30.93
2023-02-28T10:15:23.889Z,32.42
2023-02-28T10:17:55.463Z,33.52
2023-02-28T10:20:34.937Z,31.49
2023-02-28T10:23:08.610Z,31.19
2023-02-28T10:25:37.300Z,30.35
2023-02-28T10:28:12.029Z,29.86
2023-02-28T10:30:41.132Z,31.22
2023-02-28T10:33:09.770Z,31.81
2023-02-28T10:35:36.934Z,31.14
2023-02-28T10:38:06.233Z,31.01
2023-02-28T10:40:34.326Z,32.43
2023-02-28T10:43:04.683Z,31.92
2023-02-28T10:45:33.152Z,32.16
2023-02-28T10:48:01.211Z,32.37
2023-02-28T10:50:28.329Z,33.12
2023-02-28T10:52:55.809Z,34.03
2023-02-28T10:55:24.352Z,32.16
2023-02-28T10:57:51.685Z,33.16
2023-02-28T11:00:26.900Z,33.67
2023-02-28T11:02:54.060Z,33.36
2023-02-28T11:05:28.816Z,32.88
2023-02-28T11:07:56.776Z,31.91
2023-02-28T11:10:25.797Z,32.02
2023-02-28T11:12:55.737Z,33.01
2023-02-28T11:15:27.581Z,32.90
2023-02-28T11:17:59.043Z,31.66
2023-02-28T11:20:27.054Z,32.41
2023-02-28T11:22:55.920Z,32.19
2023-02-28T11:25:41.356Z,31.67
2023-02-28T11:28:25.859Z,31.78
2023-02-28T11:31:07.332Z,31.87
2023-02-28T11:33:46.846Z,32.25
2023-02-28T11:36:20.251Z,33.68
2023-02-28T11:38:50.560Z,32.90
2023-02-28T11:41:20.846Z,32.17
2023-02-28T11:43:56.954Z,32.54
2023-02-28T11:46:32.705Z,33.22
2023-02-28T11:49:05.925Z,33.81
2023-02-28T11:51:34.979Z,33.40
2023-02-28T11:54:20.785Z,32.59
2023-02-28T11:56:48.942Z,32.80
2023-02-28T11:59:30.249Z,32.81
2023-02-28T12:02:14.692Z,31.48
2023-02-28T12:04:52.708Z,32.22
2023-02-28T12:07:32.040Z,31.77
2023-02-28T12:10:19.462Z,31.21
2023-02-28T12:13:12.975Z,30.81
2023-02-28T12:15:40.497Z,31.69
2023-02-28T12:18:07.652Z,31.61
2023-02-28T12:20:35.661Z,31.94
2023-02-28T12:23:21.990Z,32.10
2023-02-28T12:26:07.749Z,31.85
2023-02-28T12:28:35.828Z,30.57
2023-02-28T12:31:05.881Z,31.10
2023-02-28T12:33:37.251Z,31.67
2023-02-28T12:36:07.064Z,30.63
2023-02-28T12:38:38.977Z,31.18
2023-02-28T12:41:17.939Z,31.26
2023-02-28T12:43:46.335Z,30.41
2023-02-28T12:46:19.093Z,31.17
2023-02-28T12:48:47.204Z,32.13
2023-02-28T12:51:15.150Z,31.14
2023-02-28T12:54:01.596Z,30.98
2023-02-28T12:56:32.097Z,32.09
2023-02-28T12:59:00.464Z,32.22
2023-02-28T13:01:31.089Z,32.91
2023-02-28T13:04:01.744Z,33.06
2023-02-28T13:06:36.536Z,32.76
2023-02-28T13:09:10.883Z,33.29
2023-02-28T13:11:46.204Z,34.33
2023-02-28T13:14:21.830Z,34.01
2023-02-28T13:16:59.578Z,33.23
2023-02-28T13:19:28.399Z,33.02
2023-02-28T13:21:55.764Z,32.69
2023-02-28T13:24:35.370Z,31.07
2023-02-28T13:27:02.803Z,32.62
2023-02-28T13:29:34.567Z,31.05
2023-02-28T13:32:07.874Z,32.46
2023-02-28T13:34:36.354Z,31.79
2023-02-28T13:37:24.094Z,31.91
2023-02-28T13:39:52.587Z,31.94
2023-02-28T13:42:22.896Z,32.65
2023-02-28T13:45:02.326Z,32.81
2023-02-28T13:47:35.038Z,31.72
2023-02-28T13:50:20.920Z,31.60
2023-02-28T13:53:01.819Z,30.61
2023-02-28T13:55:44.673Z,32.10
2023-02-28T13:58:21.260Z,31.97
2023-02-28T14:01:07.143Z,31.53
2023-02-28T14:03:37.443Z,32.52
2023-02-28T14:06:17.138Z,32.96
2023-02-28T14:08:53.846Z,32.13
2023-02-28T14:11:32.300Z,31.61
2023-02-28T14:14:00.130Z,31.14
2023-02-28T14:16:28.573Z,32.15
2023-02-28T14:19:04.637Z,32.65
2023-02-28T14:21:32.482Z,32.95
2023-02-28T14:24:08.981Z,34.01
2023-02-28T14:26:54.959Z,33.38
2023-02-28T14:29:41.046Z,32.18
2023-02-28T14:32:23.999Z,33.15
2023-02-28T14:34:53.184Z,30.74
2023-02-28T14:37:24.609Z,30.47
2023-02-28T14:39:51.922Z,30.40
2023-02-28T14:42:33.108Z,30.62
2023-02-28T14:45:00.900Z,30.68
2023-02-28T14:47:34.804Z,31.15
2023-02-28T14:50:04.563Z,30.68
2023-02-28T14:52:33.479Z,30.90
2023-02-28T14:55:09.205Z,30.45
2023-02-28T14:57:40.528Z,29.18
2023-02-28T15:00:13.689Z,30.33
2023-02-28T15:02:42.321Z,30.98
2023-02-28T15:05:18.805Z,31.10
2023-02-28T15:07:46.550Z,31.20
2023-02-28T15:10:21.342Z,31.63
2023-02-28T15:12:59.396Z,31.77
2023-02-28T15:15:36.128Z,31.19
2023-02-28T15:18:08.665Z,30.60
2023-02-28T15:20:35.823Z,32.17
2023-02-28T15:23:02.980Z,31.85
2023-02-28T15:25:30.414Z,33.14
2023-02-28T15:27:58.686Z,33.01
2023-02-28T15:30:26.968Z,32.40
2023-02-28T15:33:09.411Z,32.37
2023-02-28T15:35:36.732Z,31.41
2023-02-28T15:38:18.767Z,31.35
2023-02-28T15:40:54.455Z,31.54
2023-02-28T15:43:35.286Z,31.40
2023-02-28T15:46:03.513Z,30.56
2023-02-28T15:48:30.999Z,30.50
2023-02-28T15:50:59.720Z,31.87
2023-02-28T15:53:29.072Z,32.41
2023-02-28T15:55:58.558Z,31.62
2023-02-28T15:58:25.920Z,31.92
2023-02-28T16:01:05.290Z,32.02
2023-02-28T16:03:43.797Z,31.94
2023-02-28T16:06:22.585Z,33.25
2023-02-28T16:08:52.348Z,33.30
2023-02-28T16:11:20.222Z,33.91
2023-02-28T16:13:47.860Z,34.67
2023-02-28T16:16:18.669Z,34.54
2023-02-28T16:18:45.908Z,36.12
2023-02-28T16:21:13.150Z,35.34
2023-02-28T16:23:40.782Z,36.60
2023-02-28T16:26:08.112Z,36.99
2023-02-28T16:28:37.710Z,37.30
2023-02-28T16:31:07.573Z,36.77
2023-02-28T16:33:35.328Z,36.20
2023-02-28T16:36:02.912Z,36.00
2023-02-28T16:38:30.478Z,35.26
2023-02-28T16:41:00.221Z,37.00
2023-02-28T16:43:27.534Z,37.35
2023-02-28T16:46:01.210Z,36.78
2023-02-28T16:48:30.597Z,37.34
2023-02-28T16:50:58.338Z,37.48
2023-02-28T16:53:25.844Z,38.60
2023-02-28T16:55:53.518Z,37.58
2023-02-28T16:58:22.869Z,36.66
2023-02-28T17:00:50.412Z,37.29
2023-02-28T17:03:33.115Z,36.30
2023-02-28T17:06:02.192Z,37.57
2023-02-28T17:08:30.825Z,36.01
2023-02-28T17:10:57.976Z,35.01
2023-02-28T17:13:27.110Z,34.86
2023-02-28T17:15:54.591Z,36.62
2023-02-28T17:18:26.133Z,36.21
2023-02-28T17:20:54.356Z,35.01
2023-02-28T17:23:22.393Z,36.79
2023-02-28T17:25:57.612Z,36.25
2023-02-28T17:28:26.178Z,35.64
2023-02-28T17:30:53.754Z,35.38
2023-02-28T17:33:21.455Z,34.69
2023-02-28T17:35:49.544Z,35.43
2023-02-28T17:38:18.811Z,35.91
2023-02-28T17:40:47.023Z,34.88
2023-02-28T17:43:15.902Z,34.94
2023-02-28T17:45:43.302Z,34.74
2023-02-28T17:48:11.103Z,33.84
2023-02-28T17:50:39.406Z,35.11
2023-02-28T17:53:07.607Z,34.75
2023-02-28T17:55:36.523Z,36.50
2023-02-28T17:58:04.573Z,34.59
2023-02-28T18:00:34.687Z,35.34
2023-02-28T18:03:02.997Z,35.06
2023-02-28T18:05:31.213Z,35.75
2023-02-28T18:07:59.725Z,34.86
2023-02-28T18:10:28.451Z,34.75
2023-02-28T18:12:56.470Z,33.54
2023-02-28T18:15:23.998Z,33.48
2023-02-28T18:17:51.906Z,33.55
2023-02-28T18:20:21.042Z,32.61
2023-02-28T18:22:48.642Z,32.25
2023-02-28T18:25:18.158Z,32.10
2023-02-28T18:27:58.551Z,32.44
2023-02-28T18:30:32.336Z,32.39
2023-02-28T18:33:05.506Z,32.00
2023-02-28T18:35:36.974Z,31.81
2023-02-28T18:38:06.392Z,31.54
2023-02-28T18:40:37.820Z,32.75
2023-02-28T18:43:06.124Z,32.90
2023-02-28T18:45:37.439Z,33.75
2023-02-28T18:48:06.073Z,36.14
2023-02-28T18:50:38.930Z,34.19
2023-02-28T18:53:07.479Z,34.97
2023-02-28T18:55:36.843Z,34.39
2023-02-28T18:58:06.446Z,33.73
2023-02-28T19:00:36.137Z,33.12
2023-02-28T19:03:05.245Z,32.92
2023-02-28T19:05:34.964Z,32.58
2023-02-28T19:08:03.654Z,32.84
2023-02-28T19:10:32.209Z,32.97
2023-02-28T19:13:00.212Z,32.54
2023-02-28T19:15:28.331Z,33.56
2023-02-28T19:17:57.072Z,35.04
2023-02-28T19:20:25.380Z,34.29
2023-02-28T19:22:53.840Z,33.37
2023-02-28T19:25:22.862Z,34.14
2023-02-28T19:27:55.669Z,33.33
2023-02-28T19:30:27.985Z,33.61
2023-02-28T19:32:56.492Z,33.72
2023-02-28T19:35:25.613Z,33.70
2023-02-28T19:37:53.663Z,34.91
2023-02-28T19:40:21.876Z,33.88
2023-02-28T19:42:51.187Z,33.50
2023-02-28T19:45:20.377Z,33.93
2023-02-28T19:47:49.815Z,33.47
2023-02-28T19:50:18.854Z,33.43
2023-02-28T19:52:47.182Z,33.58
2023-02-28T19:55:16.234Z,33.38
2023-02-28T19:57:48.021Z,33.05
2023-02-28T20:00:17.021Z,32.79
2023-02-28T20:02:45.396Z,32.34
2023-02-28T20:05:13.064Z,32.17
2023-02-28T20:07:41.548Z,32.13
2023-02-28T20:10:10.432Z,32.00
2023-02-28T20:12:38.565Z,31.98
2023-02-28T20:15:07.431Z,32.07
2023-02-28T20:17:36.127Z,31.97
2023-02-28T20:20:05.884Z,31.84
2023-02-28T20:22:35.592Z,31.76
2023-02-28T20:25:07.326Z,31.80
2023-02-28T20:27:38.769Z,31.83
2023-02-28T20:30:08.981Z,31.84
2023-02-28T20:32:40.128Z,32.49
2023-02-28T20:35:13.150Z,31.85
2023-02-28T20:37:41.112Z,31.95
2023-02-28T20:40:10.561Z,31.73
2023-02-28T20:42:38.466Z,31.75
2023-02-28T20:45:06.863Z,31.84
2023-02-28T20:47:34.697Z,31.48
2023-02-28T20:50:02.673Z,31.58
2023-02-28T20:52:31.129Z,31.47
2023-02-28T20:55:00.232Z,32.19
2023-02-28T20:57:31.157Z,31.98
2023-02-28T20:59:59.323Z,32.11
2023-02-28T21:02:27.414Z,31.82
2023-02-28T21:04:55.707Z,31.75
2023-02-28T21:07:23.462Z,31.83
2023-02-28T21:09:53.373Z,31.92
2023-02-28T21:12:21.940Z,31.86
2023-02-28T21:14:49.953Z,31.80
2023-02-28T21:17:17.533Z,31.97
2023-02-28T21:19:46.329Z,32.16
2023-02-28T21:22:19.799Z,32.03
2023-02-28T21:24:47.022Z,31.90
2023-02-28T21:27:14.807Z,31.99
2023-02-28T21:29:42.285Z,32.17
2023-02-28T21:32:09.523Z,31.86
2023-02-28T21:34:37.430Z,31.96
2023-02-28T21:37:07.249Z,32.20
2023-02-28T21:39:34.592Z,32.19
2023-02-28T21:42:04.167Z,32.22
2023-02-28T21:44:32.378Z,32.10
2023-02-28T21:47:02.637Z,32.00
2023-02-28T21:49:30.269Z,31.47
2023-02-28T21:51:57.612Z,31.61
2023-02-28T21:54:24.878Z,31.51
2023-02-28T21:56:52.343Z,31.62
2023-02-28T21:59:19.762Z,31.76
2023-02-28T22:01:47.015Z,31.80
2023-02-28T22:04:21.486Z,32.08
2023-02-28T22:06:49.917Z,31.84
2023-02-28T22:09:17.412Z,32.23
2023-02-28T22:11:44.688Z,31.94
2023-02-28T22:14:12.647Z,32.06
2023-02-28T22:16:50.793Z,31.90
2023-02-28T22:19:21.037Z,32.17
2023-02-28T22:21:48.584Z,32.49
2023-02-28T22:24:17.911Z,32.67
2023-02-28T22:26:45.340Z,32.58
2023-02-28T22:29:12.773Z,32.25
2023-02-28T22:31:39.996Z,31.95
2023-02-28T22:34:08.782Z,31.97
2023-02-28T22:36:36.462Z,32.40
2023-02-28T22:39:04.150Z,32.35
2023-02-28T22:41:31.488Z,32.23
2023-02-28T22:44:00.421Z,32.18
2023-02-28T22:46:28.562Z,32.33
2023-02-28T22:48:55.931Z,32.14
2023-02-28T22:51:25.355Z,32.04
2023-02-28T22:53:53.533Z,32.55
2023-02-28T22:56:21.918Z,32.43
2023-02-28T22:58:50.581Z,32.96
2023-02-28T23:01:17.868Z,32.76
2023-02-28T23:03:45.122Z,32.93
2023-02-28T23:06:15.747Z,32.53
2023-02-28T23:08:43.177Z,32.41
2023-02-28T23:11:10.717Z,31.95
2023-02-28T23:13:39.754Z,31.96
2023-02-28T23:16:07.307Z,32.27
2023-02-28T23:18:34.526Z,33.42
2023-02-28T23:21:02.090Z,33.74
2023-02-28T23:23:29.329Z,32.88
2023-02-28T23:25:56.503Z,32.56
2023-02-28T23:28:23.927Z,32.49
2023-02-28T23:30:51.761Z,32.35
2023-02-28T23:33:18.904Z,32.41
2023-02-28T23:35:46.385Z,33.15
2023-02-28T23:38:13.569Z,34.77
2023-02-28T23:40:41.000Z,32.09
2023-02-28T23:43:08.441Z,33.33
2023-02-28T23:45:35.715Z,33.40
2023-02-28T23:48:03.047Z,33.41
2023-02-28T23:50:30.662Z,34.92
2023-02-28T23:52:58.069Z,35.64
2023-02-28T23:55:25.440Z,36.57
2023-02-28T23:57:52.944Z,36.59
